sensor_id;sensor_type;location;lat;lon;timestamp;P1;durP1;ratioP1;P2;durP2;ratioP2
55346;SDS011;41218;55.700;38.270;2023-03-14T00:04:33;4.35;;;2.38;;
55346;SDS011;41218;55.700;38.270;2023-03-14T00:09:52;3.05;;;2.08;;
55346;SDS011;41218;55.700;38.270;2023-03-14T00:15:11;3.05;;;1.80;;
55346;SDS011;41218;55.700;38.270;2023-03-14T00:20:31;5.10;;;2.05;;
55346;SDS011;41218;55.700;38.270;2023-03-14T00:25:50;3.72;;;1.90;;
55346;SDS011;41218;55.700;38.270;2023-03-14T00:31:09;4.53;;;2.00;;
55346;SDS011;41218;55.700;38.270;2023-03-14T00:36:31;3.47;;;1.73;;
55346;SDS011;41218;55.700;38.270;2023-03-14T00:41:49;2.90;;;1.60;;
55346;SDS011;41218;55.700;38.270;2023-03-14T00:47:08;3.38;;;1.67;;
55346;SDS011;41218;55.700;38.270;2023-03-14T00:52:27;2.92;;;1.92;;
55346;SDS011;41218;55.700;38.270;2023-03-14T00:57:28;3.95;;;1.70;;
55346;SDS011;41218;55.700;38.270;2023-03-14T01:02:28;5.10;;;2.28;;
55346;SDS011;41218;55.700;38.270;2023-03-14T01:07:29;2.77;;;1.90;;
55346;SDS011;41218;55.700;38.270;2023-03-14T01:12:29;4.63;;;1.75;;
55346;SDS011;41218;55.700;38.270;2023-03-14T01:17:30;3.22;;;1.88;;
55346;SDS011;41218;55.700;38.270;2023-03-14T01:22:49;2.50;;;1.50;;
55346;SDS011;41218;55.700;38.270;2023-03-14T01:28:08;1.63;;;1.17;;
55346;SDS011;41218;55.700;38.270;2023-03-14T01:33:27;2.42;;;1.30;;
55346;SDS011;41218;55.700;38.270;2023-03-14T01:38:37;2.43;;;1.50;;
55346;SDS011;41218;55.700;38.270;2023-03-14T01:43:38;2.25;;;1.27;;
55346;SDS011;41218;55.700;38.270;2023-03-14T01:48:55;2.07;;;0.87;;
55346;SDS011;41218;55.700;38.270;2023-03-14T01:54:06;2.90;;;1.30;;
55346;SDS011;41218;55.700;38.270;2023-03-14T01:59:11;1.85;;;1.30;;
55346;SDS011;41218;55.700;38.270;2023-03-14T02:04:12;3.92;;;1.65;;
55346;SDS011;41218;55.700;38.270;2023-03-14T02:09:13;2.22;;;1.40;;
55346;SDS011;41218;55.700;38.270;2023-03-14T02:14:19;3.42;;;1.50;;
55346;SDS011;41218;55.700;38.270;2023-03-14T02:19:52;3.85;;;1.48;;
55346;SDS011;41218;55.700;38.270;2023-03-14T02:30:12;4.00;;;2.03;;
55346;SDS011;41218;55.700;38.270;2023-03-14T02:35:19;5.10;;;2.05;;
55346;SDS011;41218;55.700;38.270;2023-03-14T02:40:22;5.03;;;2.25;;
55346;SDS011;41218;55.700;38.270;2023-03-14T02:50:24;4.37;;;1.83;;
55346;SDS011;41218;55.700;38.270;2023-03-14T02:55:29;5.38;;;2.20;;
55346;SDS011;41218;55.700;38.270;2023-03-14T03:00:30;7.82;;;3.03;;
55346;SDS011;41218;55.700;38.270;2023-03-14T03:05:30;6.55;;;2.75;;
55346;SDS011;41218;55.700;38.270;2023-03-14T03:10:32;5.28;;;2.85;;
55346;SDS011;41218;55.700;38.270;2023-03-14T03:15:32;7.23;;;3.00;;
55346;SDS011;41218;55.700;38.270;2023-03-14T03:25:34;8.40;;;3.00;;
55346;SDS011;41218;55.700;38.270;2023-03-14T03:30:38;5.43;;;2.37;;
55346;SDS011;41218;55.700;38.270;2023-03-14T03:35:47;5.47;;;2.63;;
55346;SDS011;41218;55.700;38.270;2023-03-14T03:40:49;6.30;;;3.35;;
55346;SDS011;41218;55.700;38.270;2023-03-14T03:45:49;5.27;;;2.77;;
55346;SDS011;41218;55.700;38.270;2023-03-14T03:50:50;5.77;;;2.83;;
55346;SDS011;41218;55.700;38.270;2023-03-14T03:55:50;5.00;;;2.93;;
55346;SDS011;41218;55.700;38.270;2023-03-14T04:00:51;8.77;;;3.60;;
55346;SDS011;41218;55.700;38.270;2023-03-14T04:06:00;6.43;;;3.07;;
55346;SDS011;41218;55.700;38.270;2023-03-14T04:11:05;8.65;;;3.03;;
55346;SDS011;41218;55.700;38.270;2023-03-14T04:16:10;9.20;;;3.23;;
55346;SDS011;41218;55.700;38.270;2023-03-14T04:21:15;5.85;;;2.85;;
55346;SDS011;41218;55.700;38.270;2023-03-14T04:26:16;9.43;;;3.13;;
55346;SDS011;41218;55.700;38.270;2023-03-14T04:31:18;6.57;;;3.15;;
55346;SDS011;41218;55.700;38.270;2023-03-14T04:36:20;6.63;;;2.95;;
55346;SDS011;41218;55.700;38.270;2023-03-14T04:41:21;7.20;;;3.80;;
55346;SDS011;41218;55.700;38.270;2023-03-14T04:46:21;12.50;;;3.23;;
55346;SDS011;41218;55.700;38.270;2023-03-14T04:51:22;7.77;;;3.37;;
55346;SDS011;41218;55.700;38.270;2023-03-14T04:56:23;8.35;;;2.95;;
55346;SDS011;41218;55.700;38.270;2023-03-14T05:01:24;6.00;;;3.07;;
55346;SDS011;41218;55.700;38.270;2023-03-14T05:06:24;6.43;;;3.30;;
55346;SDS011;41218;55.700;38.270;2023-03-14T05:11:25;8.37;;;3.40;;
55346;SDS011;41218;55.700;38.270;2023-03-14T05:16:25;6.70;;;3.33;;
55346;SDS011;41218;55.700;38.270;2023-03-14T05:21:26;6.40;;;3.30;;
55346;SDS011;41218;55.700;38.270;2023-03-14T05:26:26;8.50;;;3.13;;
55346;SDS011;41218;55.700;38.270;2023-03-14T05:31:27;7.27;;;2.60;;
55346;SDS011;41218;55.700;38.270;2023-03-14T05:36:27;6.27;;;2.63;;
55346;SDS011;41218;55.700;38.270;2023-03-14T05:41:28;5.53;;;2.53;;
55346;SDS011;41218;55.700;38.270;2023-03-14T05:46:29;2.53;;;1.65;;
55346;SDS011;41218;55.700;38.270;2023-03-14T05:51:32;6.57;;;2.70;;
55346;SDS011;41218;55.700;38.270;2023-03-14T05:56:33;6.40;;;2.70;;
55346;SDS011;41218;55.700;38.270;2023-03-14T06:01:34;5.60;;;2.80;;
55346;SDS011;41218;55.700;38.270;2023-03-14T06:06:34;9.00;;;3.08;;
55346;SDS011;41218;55.700;38.270;2023-03-14T06:11:35;6.10;;;2.77;;
55346;SDS011;41218;55.700;38.270;2023-03-14T06:16:35;7.00;;;3.03;;
55346;SDS011;41218;55.700;38.270;2023-03-14T06:21:36;7.07;;;2.73;;
55346;SDS011;41218;55.700;38.270;2023-03-14T06:26:36;6.63;;;2.70;;
55346;SDS011;41218;55.700;38.270;2023-03-14T06:31:37;6.53;;;2.80;;
55346;SDS011;41218;55.700;38.270;2023-03-14T06:36:37;5.63;;;2.77;;
55346;SDS011;41218;55.700;38.270;2023-03-14T06:41:38;5.57;;;2.40;;
55346;SDS011;41218;55.700;38.270;2023-03-14T06:46:38;5.70;;;2.80;;
55346;SDS011;41218;55.700;38.270;2023-03-14T06:51:39;4.50;;;2.53;;
55346;SDS011;41218;55.700;38.270;2023-03-14T06:56:39;6.10;;;2.47;;
55346;SDS011;41218;55.700;38.270;2023-03-14T07:01:40;8.47;;;2.77;;
55346;SDS011;41218;55.700;38.270;2023-03-14T07:06:41;5.25;;;2.33;;
55346;SDS011;41218;55.700;38.270;2023-03-14T07:11:44;5.78;;;2.63;;
55346;SDS011;41218;55.700;38.270;2023-03-14T07:16:44;6.07;;;2.67;;
55346;SDS011;41218;55.700;38.270;2023-03-14T07:21:45;5.03;;;2.50;;
55346;SDS011;41218;55.700;38.270;2023-03-14T07:26:45;4.50;;;2.10;;
55346;SDS011;41218;55.700;38.270;2023-03-14T07:31:46;8.23;;;3.10;;
55346;SDS011;41218;55.700;38.270;2023-03-14T07:36:46;4.40;;;2.40;;
55346;SDS011;41218;55.700;38.270;2023-03-14T07:41:47;4.60;;;2.50;;
55346;SDS011;41218;55.700;38.270;2023-03-14T07:46:47;5.83;;;2.50;;
55346;SDS011;41218;55.700;38.270;2023-03-14T07:51:48;4.77;;;2.53;;
55346;SDS011;41218;55.700;38.270;2023-03-14T07:56:49;6.07;;;1.60;;
55346;SDS011;41218;55.700;38.270;2023-03-14T08:01:49;5.17;;;2.73;;
55346;SDS011;41218;55.700;38.270;2023-03-14T08:06:50;5.07;;;2.50;;
55346;SDS011;41218;55.700;38.270;2023-03-14T08:11:50;7.57;;;2.60;;
55346;SDS011;41218;55.700;38.270;2023-03-14T08:16:51;8.67;;;2.73;;
55346;SDS011;41218;55.700;38.270;2023-03-14T08:21:52;5.78;;;2.80;;
55346;SDS011;41218;55.700;38.270;2023-03-14T08:26:53;7.43;;;2.70;;
55346;SDS011;41218;55.700;38.270;2023-03-14T08:31:53;5.27;;;2.37;;
55346;SDS011;41218;55.700;38.270;2023-03-14T08:36:54;10.05;;;2.60;;
55346;SDS011;41218;55.700;38.270;2023-03-14T08:41:56;6.07;;;2.80;;
55346;SDS011;41218;55.700;38.270;2023-03-14T08:46:57;5.97;;;2.83;;
55346;SDS011;41218;55.700;38.270;2023-03-14T08:51:57;4.77;;;2.47;;
55346;SDS011;41218;55.700;38.270;2023-03-14T08:56:58;5.85;;;2.55;;
55346;SDS011;41218;55.700;38.270;2023-03-14T09:01:59;6.33;;;2.67;;
55346;SDS011;41218;55.700;38.270;2023-03-14T09:07:03;6.68;;;2.88;;
55346;SDS011;41218;55.700;38.270;2023-03-14T09:12:04;9.07;;;2.63;;
55346;SDS011;41218;55.700;38.270;2023-03-14T09:17:05;4.60;;;2.60;;
55346;SDS011;41218;55.700;38.270;2023-03-14T09:22:06;7.00;;;2.90;;
55346;SDS011;41218;55.700;38.270;2023-03-14T09:27:06;4.20;;;2.00;;
55346;SDS011;41218;55.700;38.270;2023-03-14T09:32:07;7.03;;;3.03;;
55346;SDS011;41218;55.700;38.270;2023-03-14T09:37:08;6.40;;;2.72;;
55346;SDS011;41218;55.700;38.270;2023-03-14T09:42:11;5.77;;;2.70;;
55346;SDS011;41218;55.700;38.270;2023-03-14T09:47:15;4.97;;;2.60;;
55346;SDS011;41218;55.700;38.270;2023-03-14T09:52:32;6.75;;;2.97;;
55346;SDS011;41218;55.700;38.270;2023-03-14T09:57:36;5.35;;;2.58;;
55346;SDS011;41218;55.700;38.270;2023-03-14T10:02:36;6.53;;;2.47;;
55346;SDS011;41218;55.700;38.270;2023-03-14T10:12:38;3.90;;;2.30;;
55346;SDS011;41218;55.700;38.270;2023-03-14T10:17:40;7.20;;;3.03;;
55346;SDS011;41218;55.700;38.270;2023-03-14T10:22:46;5.28;;;2.72;;
55346;SDS011;41218;55.700;38.270;2023-03-14T10:27:51;6.25;;;2.80;;
55346;SDS011;41218;55.700;38.270;2023-03-14T10:32:51;7.77;;;3.50;;
55346;SDS011;41218;55.700;38.270;2023-03-14T10:37:53;5.47;;;2.77;;
55346;SDS011;41218;55.700;38.270;2023-03-14T10:42:58;6.07;;;2.95;;
55346;SDS011;41218;55.700;38.270;2023-03-14T10:48:18;6.47;;;3.10;;
55346;SDS011;41218;55.700;38.270;2023-03-14T10:53:20;7.53;;;3.17;;
55346;SDS011;41218;55.700;38.270;2023-03-14T10:58:22;6.60;;;3.30;;
55346;SDS011;41218;55.700;38.270;2023-03-14T11:03:25;6.15;;;3.03;;
55346;SDS011;41218;55.700;38.270;2023-03-14T11:08:37;5.68;;;3.10;;
55346;SDS011;41218;55.700;38.270;2023-03-14T11:29:36;6.88;;;3.40;;
55346;SDS011;41218;55.700;38.270;2023-03-14T11:34:47;6.50;;;3.60;;
55346;SDS011;41218;55.700;38.270;2023-03-14T11:40:33;6.20;;;3.33;;
55346;SDS011;41218;55.700;38.270;2023-03-14T11:45:20;6.72;;;3.13;;
55346;SDS011;41218;55.700;38.270;2023-03-14T11:50:27;7.00;;;3.08;;
55346;SDS011;41218;55.700;38.270;2023-03-14T11:55:31;5.22;;;2.67;;
55346;SDS011;41218;55.700;38.270;2023-03-14T12:00:34;7.43;;;3.33;;
55346;SDS011;41218;55.700;38.270;2023-03-14T12:11:03;6.90;;;3.60;;
55346;SDS011;41218;55.700;38.270;2023-03-14T12:21:34;7.65;;;3.30;;
55346;SDS011;41218;55.700;38.270;2023-03-14T12:26:50;8.68;;;3.15;;
55346;SDS011;41218;55.700;38.270;2023-03-14T12:52:36;7.10;;;3.45;;
55346;SDS011;41218;55.700;38.270;2023-03-14T13:03:51;7.38;;;3.30;;
55346;SDS011;41218;55.700;38.270;2023-03-14T13:08:55;6.82;;;4.10;;
55346;SDS011;41218;55.700;38.270;2023-03-14T13:13:57;6.60;;;3.10;;
55346;SDS011;41218;55.700;38.270;2023-03-14T13:19:13;6.68;;;3.67;;
55346;SDS011;41218;55.700;38.270;2023-03-14T13:24:23;8.65;;;3.88;;
55346;SDS011;41218;55.700;38.270;2023-03-14T13:29:27;5.15;;;3.10;;
55346;SDS011;41218;55.700;38.270;2023-03-14T13:34:31;7.78;;;3.70;;
55346;SDS011;41218;55.700;38.270;2023-03-14T13:39:33;8.82;;;4.10;;
55346;SDS011;41218;55.700;38.270;2023-03-14T13:44:35;10.07;;;4.20;;
55346;SDS011;41218;55.700;38.270;2023-03-14T13:49:38;7.15;;;3.72;;
55346;SDS011;41218;55.700;38.270;2023-03-14T13:54:39;7.47;;;4.07;;
55346;SDS011;41218;55.700;38.270;2023-03-14T13:59:40;8.63;;;3.93;;
55346;SDS011;41218;55.700;38.270;2023-03-14T14:04:40;7.37;;;3.73;;
55346;SDS011;41218;55.700;38.270;2023-03-14T14:09:41;9.43;;;4.43;;
55346;SDS011;41218;55.700;38.270;2023-03-14T14:15:27;7.00;;;3.55;;
55346;SDS011;41218;55.700;38.270;2023-03-14T14:25:33;6.90;;;3.65;;
55346;SDS011;41218;55.700;38.270;2023-03-14T14:30:34;6.80;;;3.57;;
55346;SDS011;41218;55.700;38.270;2023-03-14T14:35:35;7.33;;;3.60;;
55346;SDS011;41218;55.700;38.270;2023-03-14T14:40:36;8.27;;;4.35;;
55346;SDS011;41218;55.700;38.270;2023-03-14T14:45:45;8.98;;;3.80;;
55346;SDS011;41218;55.700;38.270;2023-03-14T14:56:03;14.88;;;4.40;;
55346;SDS011;41218;55.700;38.270;2023-03-14T15:06:17;6.93;;;3.40;;
55346;SDS011;41218;55.700;38.270;2023-03-14T15:11:22;7.93;;;3.50;;
55346;SDS011;41218;55.700;38.270;2023-03-14T15:16:27;7.80;;;3.70;;
55346;SDS011;41218;55.700;38.270;2023-03-14T15:21:29;7.35;;;3.65;;
55346;SDS011;41218;55.700;38.270;2023-03-14T15:26:30;7.73;;;3.33;;
55346;SDS011;41218;55.700;38.270;2023-03-14T15:31:31;8.10;;;3.60;;
55346;SDS011;41218;55.700;38.270;2023-03-14T15:36:32;7.47;;;3.60;;
55346;SDS011;41218;55.700;38.270;2023-03-14T15:41:34;7.70;;;3.83;;
55346;SDS011;41218;55.700;38.270;2023-03-14T15:46:34;8.20;;;3.93;;
55346;SDS011;41218;55.700;38.270;2023-03-14T15:51:35;7.50;;;3.50;;
55346;SDS011;41218;55.700;38.270;2023-03-14T15:56:35;6.13;;;3.57;;
55346;SDS011;41218;55.700;38.270;2023-03-14T16:01:36;8.85;;;3.75;;
55346;SDS011;41218;55.700;38.270;2023-03-14T16:06:37;10.13;;;3.83;;
55346;SDS011;41218;55.700;38.270;2023-03-14T16:11:37;9.13;;;3.50;;
55346;SDS011;41218;55.700;38.270;2023-03-14T16:16:38;7.35;;;3.40;;
55346;SDS011;41218;55.700;38.270;2023-03-14T16:21:39;7.87;;;3.53;;
55346;SDS011;41218;55.700;38.270;2023-03-14T16:26:39;5.87;;;2.90;;
55346;SDS011;41218;55.700;38.270;2023-03-14T16:31:40;8.23;;;2.97;;
55346;SDS011;41218;55.700;38.270;2023-03-14T16:36:42;8.05;;;3.22;;
55346;SDS011;41218;55.700;38.270;2023-03-14T16:41:42;5.97;;;2.77;;
55346;SDS011;41218;55.700;38.270;2023-03-14T16:46:43;6.00;;;2.90;;
55346;SDS011;41218;55.700;38.270;2023-03-14T16:51:43;5.70;;;2.80;;
55346;SDS011;41218;55.700;38.270;2023-03-14T16:56:44;8.77;;;2.70;;
55346;SDS011;41218;55.700;38.270;2023-03-14T17:01:47;5.05;;;2.47;;
55346;SDS011;41218;55.700;38.270;2023-03-14T17:06:48;6.50;;;2.67;;
55346;SDS011;41218;55.700;38.270;2023-03-14T17:11:49;4.37;;;2.30;;
55346;SDS011;41218;55.700;38.270;2023-03-14T17:16:50;6.47;;;2.73;;
55346;SDS011;41218;55.700;38.270;2023-03-14T17:21:50;6.20;;;2.60;;
55346;SDS011;41218;55.700;38.270;2023-03-14T17:26:51;10.83;;;2.60;;
55346;SDS011;41218;55.700;38.270;2023-03-14T17:31:51;5.27;;;2.13;;
55346;SDS011;41218;55.700;38.270;2023-03-14T17:36:52;5.03;;;2.30;;
55346;SDS011;41218;55.700;38.270;2023-03-14T17:41:53;5.53;;;2.40;;
55346;SDS011;41218;55.700;38.270;2023-03-14T17:46:53;5.85;;;2.40;;
55346;SDS011;41218;55.700;38.270;2023-03-14T17:51:55;5.63;;;2.40;;
55346;SDS011;41218;55.700;38.270;2023-03-14T17:56:55;4.43;;;1.97;;
55346;SDS011;41218;55.700;38.270;2023-03-14T18:01:56;5.90;;;2.30;;
55346;SDS011;41218;55.700;38.270;2023-03-14T18:06:57;2.57;;;1.37;;
55346;SDS011;41218;55.700;38.270;2023-03-14T18:11:58;3.83;;;2.30;;
55346;SDS011;41218;55.700;38.270;2023-03-14T18:16:59;5.38;;;2.20;;
55346;SDS011;41218;55.700;38.270;2023-03-14T18:22:00;4.13;;;1.85;;
55346;SDS011;41218;55.700;38.270;2023-03-14T18:27:00;4.10;;;1.63;;
55346;SDS011;41218;55.700;38.270;2023-03-14T18:32:01;4.10;;;2.03;;
55346;SDS011;41218;55.700;38.270;2023-03-14T18:37:02;4.77;;;1.80;;
55346;SDS011;41218;55.700;38.270;2023-03-14T18:42:02;4.88;;;1.95;;
55346;SDS011;41218;55.700;38.270;2023-03-14T18:47:03;3.50;;;1.97;;
55346;SDS011;41218;55.700;38.270;2023-03-14T18:52:04;5.67;;;1.80;;
55346;SDS011;41218;55.700;38.270;2023-03-14T18:57:04;5.03;;;1.77;;
55346;SDS011;41218;55.700;38.270;2023-03-14T19:02:07;4.00;;;2.08;;
55346;SDS011;41218;55.700;38.270;2023-03-14T19:07:08;3.03;;;1.33;;
55346;SDS011;41218;55.700;38.270;2023-03-14T19:12:09;2.73;;;1.40;;
55346;SDS011;41218;55.700;38.270;2023-03-14T19:17:09;2.43;;;1.43;;
55346;SDS011;41218;55.700;38.270;2023-03-14T19:22:10;4.07;;;1.63;;
55346;SDS011;41218;55.700;38.270;2023-03-14T19:27:10;4.07;;;1.77;;
55346;SDS011;41218;55.700;38.270;2023-03-14T19:32:11;3.77;;;1.50;;
55346;SDS011;41218;55.700;38.270;2023-03-14T19:37:13;7.65;;;1.55;;
55346;SDS011;41218;55.700;38.270;2023-03-14T19:42:13;3.67;;;1.53;;
55346;SDS011;41218;55.700;38.270;2023-03-14T19:47:14;4.90;;;1.67;;
55346;SDS011;41218;55.700;38.270;2023-03-14T19:52:14;4.00;;;1.80;;
55346;SDS011;41218;55.700;38.270;2023-03-14T19:57:17;2.37;;;1.30;;
55346;SDS011;41218;55.700;38.270;2023-03-14T20:02:18;4.65;;;1.58;;
55346;SDS011;41218;55.700;38.270;2023-03-14T20:07:19;2.70;;;1.40;;
55346;SDS011;41218;55.700;38.270;2023-03-14T20:12:20;2.78;;;1.40;;
55346;SDS011;41218;55.700;38.270;2023-03-14T20:17:21;3.57;;;1.70;;
55346;SDS011;41218;55.700;38.270;2023-03-14T20:22:21;4.93;;;1.70;;
55346;SDS011;41218;55.700;38.270;2023-03-14T20:27:22;3.27;;;1.17;;
55346;SDS011;41218;55.700;38.270;2023-03-14T20:32:22;2.57;;;1.20;;
55346;SDS011;41218;55.700;38.270;2023-03-14T20:37:23;7.83;;;1.90;;
55346;SDS011;41218;55.700;38.270;2023-03-14T20:42:23;3.47;;;1.47;;
55346;SDS011;41218;55.700;38.270;2023-03-14T20:47:26;5.07;;;1.70;;
55346;SDS011;41218;55.700;38.270;2023-03-14T20:52:26;2.40;;;1.40;;
55346;SDS011;41218;55.700;38.270;2023-03-14T20:57:27;3.97;;;1.63;;
55346;SDS011;41218;55.700;38.270;2023-03-14T21:02:27;3.43;;;1.33;;
55346;SDS011;41218;55.700;38.270;2023-03-14T21:07:29;3.33;;;1.60;;
55346;SDS011;41218;55.700;38.270;2023-03-14T21:12:32;5.80;;;1.50;;
55346;SDS011;41218;55.700;38.270;2023-03-14T21:17:33;4.33;;;1.63;;
55346;SDS011;41218;55.700;38.270;2023-03-14T21:22:33;4.73;;;1.70;;
55346;SDS011;41218;55.700;38.270;2023-03-14T21:27:36;3.93;;;1.50;;
55346;SDS011;41218;55.700;38.270;2023-03-14T21:32:37;3.15;;;1.50;;
55346;SDS011;41218;55.700;38.270;2023-03-14T21:37:38;2.63;;;1.57;;
55346;SDS011;41218;55.700;38.270;2023-03-14T21:42:38;3.13;;;1.30;;
55346;SDS011;41218;55.700;38.270;2023-03-14T21:47:39;2.45;;;1.40;;
55346;SDS011;41218;55.700;38.270;2023-03-14T21:52:41;5.50;;;1.70;;
55346;SDS011;41218;55.700;38.270;2023-03-14T21:57:45;3.63;;;1.67;;
55346;SDS011;41218;55.700;38.270;2023-03-14T22:02:48;3.50;;;1.30;;
55346;SDS011;41218;55.700;38.270;2023-03-14T22:07:52;3.30;;;1.67;;
55346;SDS011;41218;55.700;38.270;2023-03-14T22:12:52;4.67;;;1.60;;
55346;SDS011;41218;55.700;38.270;2023-03-14T22:17:55;4.15;;;1.90;;
55346;SDS011;41218;55.700;38.270;2023-03-14T22:22:55;3.47;;;1.70;;
55346;SDS011;41218;55.700;38.270;2023-03-14T22:27:56;3.63;;;1.80;;
55346;SDS011;41218;55.700;38.270;2023-03-14T22:32:56;2.53;;;1.60;;
55346;SDS011;41218;55.700;38.270;2023-03-14T22:37:57;2.73;;;1.67;;
55346;SDS011;41218;55.700;38.270;2023-03-14T22:42:57;4.73;;;1.30;;
55346;SDS011;41218;55.700;38.270;2023-03-14T22:47:58;2.97;;;1.60;;
55346;SDS011;41218;55.700;38.270;2023-03-14T22:52:58;2.67;;;1.53;;
55346;SDS011;41218;55.700;38.270;2023-03-14T22:57:59;3.60;;;1.90;;
55346;SDS011;41218;55.700;38.270;2023-03-14T23:03:00;3.88;;;2.03;;
55346;SDS011;41218;55.700;38.270;2023-03-14T23:08:00;4.70;;;1.93;;
55346;SDS011;41218;55.700;38.270;2023-03-14T23:13:01;4.50;;;2.33;;
55346;SDS011;41218;55.700;38.270;2023-03-14T23:18:04;6.57;;;2.53;;
55346;SDS011;41218;55.700;38.270;2023-03-14T23:23:05;5.83;;;2.47;;
55346;SDS011;41218;55.700;38.270;2023-03-14T23:28:12;7.00;;;2.88;;
55346;SDS011;41218;55.700;38.270;2023-03-14T23:33:13;6.30;;;2.60;;
55346;SDS011;41218;55.700;38.270;2023-03-14T23:38:14;6.00;;;2.70;;
55346;SDS011;41218;55.700;38.270;2023-03-14T23:43:14;5.83;;;2.87;;
55346;SDS011;41218;55.700;38.270;2023-03-14T23:48:14;4.13;;;2.03;;
55346;SDS011;41218;55.700;38.270;2023-03-14T23:53:15;9.40;;;2.70;;
55346;SDS011;41218;55.700;38.270;2023-03-14T23:58:16;7.53;;;2.73;;
